Time;durP1;ratioP1;P1;durP2;ratioP2;P2;SDS_P1;SDS_P2;PMS_P1;PMS_P2;Temp;Humidity;BMP_temperature;BMP_pressure;BME280_temperature;BME280_humidity;BME280_pressure;Samples;Min_cycle;Max_cycle;Signal;HPM_P1;HPM_P2
2021/09/10 00:01:33;;;;;;;3.13;2.85;;;24.40;45.80;;;;;;5032096;28;20687;-49
2021/09/10 00:04:02;;;;;;;3.08;2.78;;;24.40;45.80;;;;;;5028570;28;20253;-48
2021/09/10 00:06:28;;;;;;;3.35;3.05;;;24.40;45.70;;;;;;5030393;28;20329;-48
2021/09/10 00:08:55;;;;;;;3.25;3.05;;;24.40;45.80;;;;;;5031875;28;20238;-49
2021/09/10 00:11:21;;;;;;;3.22;2.92;;;24.40;45.80;;;;;;5032091;28;20342;-48
2021/09/10 00:13:48;;;;;;;3.17;2.97;;;24.40;45.80;;;;;;5030221;28;20261;-49
2021/09/10 00:16:14;;;;;;;2.92;2.70;;;24.40;45.80;;;;;;5032582;28;20729;-50
2021/09/10 00:18:40;;;;;;;3.10;2.90;;;24.40;45.80;;;;;;5030817;28;20234;-48
2021/09/10 00:21:07;;;;;;;2.83;2.63;;;24.40;45.80;;;;;;5032243;28;20289;-49
2021/09/10 00:23:33;;;;;;;2.97;2.78;;;24.40;45.80;;;;;;5030076;28;20329;-51
2021/09/10 00:26:00;;;;;;;2.80;2.60;;;24.40;45.80;;;;;;5030989;28;20205;-49
2021/09/10 00:28:26;;;;;;;3.35;3.05;;;24.40;45.80;;;;;;5031664;28;20550;-45
2021/09/10 00:30:53;;;;;;;3.38;3.08;;;24.40;45.80;;;;;;5031695;28;20285;-49
2021/09/10 00:33:19;;;;;;;3.25;3.05;;;24.40;45.80;;;;;;5031043;28;20226;-48
2021/09/10 00:35:46;;;;;;;3.10;2.90;;;24.40;45.80;;;;;;5031577;28;20671;-49
2021/09/10 00:38:12;;;;;;;3.13;2.83;;;24.40;45.80;;;;;;5029910;28;20313;-48
2021/09/10 00:40:39;;;;;;;3.25;2.95;;;24.40;45.80;;;;;;5032248;28;20290;-46
2021/09/10 00:43:05;;;;;;;3.50;3.20;;;24.40;45.80;;;;;;5030745;28;20298;-50
2021/09/10 00:45:32;;;;;;;3.05;2.75;;;24.40;45.80;;;;;;5031687;28;20569;-48
2021/09/10 00:47:58;;;;;;;2.70;2.50;;;24.40;45.80;;;;;;5031383;28;20230;-50
2021/09/10 00:50:24;;;;;;;3.15;2.95;;;24.40;45.80;;;;;;5030980;28;20297;-46
2021/09/10 00:52:51;;;;;;;3.15;2.83;;;24.40;45.80;;;;;;5030034;28;20306;-47
2021/09/10 00:55:17;;;;;;;2.88;2.67;;;24.40;45.80;;;;;;5031490;28;20622;-51
2021/09/10 00:57:44;;;;;;;3.65;3.35;;;24.40;46.40;;;;;;5031317;28;20306;-49
2021/09/10 01:00:11;;;;;;;3.45;3.15;;;24.40;45.80;;;;;;5031477;28;20290;-49
2021/09/10 01:02:37;;;;;;;3.97;3.30;;;24.40;45.80;;;;;;5030623;28;20337;-51
2021/09/10 01:05:04;;;;;;;2.90;2.70;;;24.40;45.80;;;;;;5029238;28;20234;-51
2021/09/10 01:07:30;;;;;;;3.33;2.95;;;24.40;45.80;;;;;;5029501;28;20732;-49
2021/09/10 01:09:56;;;;;;;2.95;2.75;;;24.40;45.80;;;;;;5030288;28;20694;-48
2021/09/10 01:12:23;;;;;;;3.33;3.05;;;24.40;45.80;;;;;;5021581;28;20313;-47
2021/09/10 01:14:49;;;;;;;2.80;2.60;;;24.40;45.80;;;;;;5030333;28;20289;-49
2021/09/10 01:17:16;;;;;;;2.60;2.40;;;24.40;45.80;;;;;;5029795;28;20293;-50
2021/09/10 01:19:42;;;;;;;3.00;2.80;;;24.40;45.80;;;;;;5031271;28;20289;-47
2021/09/10 01:22:09;;;;;;;2.72;2.53;;;24.40;45.80;;;;;;5030074;28;20680;-49
2021/09/10 01:24:35;;;;;;;3.47;2.80;;;24.40;45.80;;;;;;5030064;28;20321;-47
2021/09/10 01:27:02;;;;;;;3.13;2.88;;;24.40;45.80;;;;;;5029994;28;20285;-50
2021/09/10 01:29:28;;;;;;;3.03;2.83;;;24.40;45.80;;;;;;5030138;28;20301;-48
2021/09/10 01:31:55;;;;;;;3.15;2.95;;;24.40;45.80;;;;;;5029922;28;20640;-46
2021/09/10 01:34:21;;;;;;;3.25;2.95;;;24.40;45.80;;;;;;5030174;28;20289;-49
2021/09/10 01:36:47;;;;;;;2.97;2.67;;;24.40;45.90;;;;;;5030023;28;20289;-49
2021/09/10 01:39:14;;;;;;;2.80;2.60;;;24.40;45.90;;;;;;5028164;28;20297;-52
2021/09/10 01:41:40;;;;;;;3.00;2.80;;;24.40;45.90;;;;;;5030259;28;20305;-50
2021/09/10 01:44:07;;;;;;;2.92;2.72;;;24.40;45.90;;;;;;5029574;28;20309;-51
2021/09/10 01:46:33;;;;;;;3.17;2.92;;;24.40;45.90;;;;;;5030241;28;20767;-48
2021/09/10 01:49:00;;;;;;;2.90;2.70;;;24.40;45.90;;;;;;5031225;28;20241;-45
2021/09/10 01:51:27;;;;;;;3.00;2.80;;;24.40;46.50;;;;;;5029364;28;20319;-49
2021/09/10 01:53:53;;;;;;;5.13;3.10;;;24.40;46.00;;;;;;5028779;28;20207;-46
2021/09/10 01:56:19;;;;;;;2.80;2.60;;;24.40;46.00;;;;;;5029749;28;20285;-49
2021/09/10 01:58:46;;;;;;;3.40;3.10;;;24.40;46.10;;;;;;5029880;28;20293;-48
2021/09/10 02:01:12;;;;;;;3.05;2.85;;;24.40;46.10;;;;;;5030231;28;20290;-48
2021/09/10 02:03:39;;;;;;;2.65;2.45;;;24.40;46.10;;;;;;5029285;28;20897;-47
2021/09/10 02:06:05;;;;;;;2.80;2.60;;;24.40;46.10;;;;;;5029382;28;20313;-46
2021/09/10 02:08:33;;;;;;;2.90;2.70;;;24.40;46.20;;;;;;5030267;28;20249;-48
2021/09/10 02:10:59;;;;;;;2.95;2.70;;;24.40;46.10;;;;;;5029011;28;20202;-51
2021/09/10 02:13:26;;;;;;;3.00;2.80;;;24.40;46.10;;;;;;5030019;28;20293;-49
2021/09/10 02:15:52;;;;;;;3.03;2.83;;;24.40;46.80;;;;;;5029248;28;20205;-47
2021/09/10 02:18:19;;;;;;;3.20;2.92;;;24.40;46.10;;;;;;5030317;28;20230;-46
2021/09/10 02:20:46;;;;;;;3.03;2.83;;;24.40;46.10;;;;;;5030507;28;20207;-47
2021/09/10 02:23:12;;;;;;;2.97;2.72;;;24.40;46.10;;;;;;5035028;28;20226;-51
2021/09/10 02:25:38;;;;;;;3.50;3.20;;;24.40;46.10;;;;;;5032717;28;20321;-47
2021/09/10 02:28:05;;;;;;;3.00;2.75;;;24.40;46.10;;;;;;5034200;28;20290;-47
2021/09/10 02:30:32;;;;;;;3.20;2.90;;;24.40;46.10;;;;;;5033587;28;20210;-46
2021/09/10 02:32:58;;;;;;;3.03;2.83;;;24.40;46.10;;;;;;5034229;28;20254;-48
2021/09/10 02:35:25;;;;;;;2.90;2.70;;;24.40;46.10;;;;;;5032591;28;20311;-47
2021/09/10 02:37:51;;;;;;;2.90;2.70;;;24.40;46.10;;;;;;5034306;28;20297;-48
2021/09/10 02:40:18;;;;;;;3.28;2.97;;;24.40;46.10;;;;;;5033278;28;20195;-46
2021/09/10 02:42:45;;;;;;;3.38;3.08;;;24.40;46.10;;;;;;5034129;28;20948;-46
2021/09/10 02:45:11;;;;;;;4.47;2.67;;;24.40;46.10;;;;;;5032488;28;20273;-48
2021/09/10 02:47:38;;;;;;;2.80;2.60;;;24.40;46.10;;;;;;5033150;28;20233;-46
2021/09/10 02:50:04;;;;;;;3.22;3.00;;;24.40;46.10;;;;;;5031612;28;20289;-50
2021/09/10 02:52:31;;;;;;;2.80;2.60;;;24.40;46.10;;;;;;5034097;28;20322;-48
2021/09/10 02:54:57;;;;;;;3.28;2.97;;;24.40;46.10;;;;;;5032715;28;20205;-49
2021/09/10 02:57:24;;;;;;;2.88;2.67;;;24.40;46.10;;;;;;5033666;28;20627;-52
2021/09/10 02:59:50;;;;;;;3.10;2.70;;;24.40;46.10;;;;;;5032529;28;20294;-47
2021/09/10 03:02:16;;;;;;;2.50;2.30;;;24.40;46.10;;;;;;5033798;28;20261;-46
2021/09/10 03:04:45;;;;;;;2.90;2.70;;;24.40;46.10;;;;;;5031486;28;20325;-46
2021/09/10 03:07:11;;;;;;;3.03;2.78;;;24.40;46.00;;;;;;5033492;28;20563;-47
2021/09/10 03:09:38;;;;;;;2.80;2.55;;;24.40;46.10;;;;;;5032408;28;20289;-48
2021/09/10 03:12:04;;;;;;;2.67;2.47;;;24.40;46.00;;;;;;5032904;28;20316;-46
2021/09/10 03:14:31;;;;;;;3.25;2.97;;;24.40;46.10;;;;;;5031177;28;20289;-50
2021/09/10 03:16:58;;;;;;;3.33;2.80;;;24.40;46.10;;;;;;5033343;28;20240;-46
2021/09/10 03:19:24;;;;;;;2.95;2.72;;;24.40;46.10;;;;;;5031976;28;20234;-49
2021/09/10 03:21:51;;;;;;;2.65;2.45;;;24.40;46.10;;;;;;5033207;28;20645;-46
2021/09/10 03:24:17;;;;;;;3.03;2.83;;;24.40;46.10;;;;;;5032311;28;20387;-46
2021/09/10 03:26:44;;;;;;;3.03;2.83;;;24.40;46.10;;;;;;5033140;28;20288;-45
2021/09/10 03:29:10;;;;;;;2.60;2.40;;;24.40;46.10;;;;;;5031323;28;20205;-45
2021/09/10 03:31:37;;;;;;;2.92;2.55;;;24.40;46.10;;;;;;5032097;28;20314;-48
2021/09/10 03:34:03;;;;;;;2.92;2.72;;;24.40;46.10;;;;;;5031951;28;20738;-47
2021/09/10 03:36:30;;;;;;;3.28;2.97;;;24.40;46.10;;;;;;5032568;28;20241;-47
2021/09/10 03:38:56;;;;;;;2.72;2.53;;;24.40;46.10;;;;;;5031116;28;20289;-46
2021/09/10 03:41:22;;;;;;;3.03;2.80;;;24.30;46.00;;;;;;5028232;28;20309;-45
2021/09/10 03:43:53;;;;;;;3.03;2.72;;;24.40;46.10;;;;;;5031000;28;20289;-47
2021/09/10 03:46:19;;;;;;;2.70;2.28;;;24.40;46.10;;;;;;5033730;28;20198;-46
2021/09/10 03:48:45;;;;;;;2.78;2.58;;;24.40;46.10;;;;;;5031691;28;20199;-50
2021/09/10 03:51:12;;;;;;;2.53;2.33;;;24.30;46.00;;;;;;5032705;28;20615;-46
2021/09/10 03:53:38;;;;;;;2.83;2.63;;;24.30;46.00;;;;;;5031128;28;20366;-46
2021/09/10 03:56:05;;;;;;;2.88;2.30;;;24.40;46.20;;;;;;5032109;28;20401;-45
2021/09/10 03:58:31;;;;;;;3.10;2.90;;;24.40;46.10;;;;;;5031763;28;20293;-47
2021/09/10 04:00:58;;;;;;;2.92;2.67;;;24.40;46.10;;;;;;5031453;28;20298;-49
2021/09/10 04:03:24;;;;;;;3.05;2.75;;;24.30;46.00;;;;;;5031650;28;20757;-46
2021/09/10 04:05:51;;;;;;;2.70;2.50;;;24.30;46.00;;;;;;5031888;28;20663;-48
2021/09/10 04:08:17;;;;;;;3.00;2.80;;;24.30;46.10;;;;;;5032368;28;20286;-45
2021/09/10 04:10:43;;;;;;;2.90;2.70;;;24.40;46.20;;;;;;5032066;28;20204;-45
2021/09/10 04:13:10;;;;;;;2.90;2.70;;;24.30;46.10;;;;;;5028631;28;20285;-46
2021/09/10 04:15:36;;;;;;;2.60;2.40;;;24.30;46.10;;;;;;5032040;28;20301;-49
2021/09/10 04:18:03;;;;;;;2.92;2.72;;;24.30;46.10;;;;;;5031961;28;20654;-45
2021/09/10 04:20:29;;;;;;;2.83;2.60;;;24.30;46.10;;;;;;5031847;28;20281;-46
2021/09/10 04:22:56;;;;;;;2.63;2.42;;;24.30;46.10;;;;;;5031097;28;20323;-48
2021/09/10 04:25:22;;;;;;;3.15;2.83;;;24.30;46.10;;;;;;5031081;28;20237;-51
2021/09/10 04:27:49;;;;;;;2.88;2.67;;;24.30;46.10;;;;;;5030980;28;20293;-49
2021/09/10 04:30:15;;;;;;;2.45;2.25;;;24.40;46.20;;;;;;5031776;28;20294;-47
2021/09/10 04:32:42;;;;;;;2.75;2.55;;;24.30;46.10;;;;;;5031010;28;20608;-45
2021/09/10 04:35:08;;;;;;;2.70;2.50;;;24.30;46.10;;;;;;5030169;28;20300;-49
2021/09/10 04:37:34;;;;;;;2.78;2.58;;;24.30;46.10;;;;;;5031538;28;20290;-51
2021/09/10 04:40:01;;;;;;;2.70;2.50;;;24.40;46.20;;;;;;5030257;28;20301;-48
2021/09/10 04:42:28;;;;;;;2.60;2.40;;;24.30;46.10;;;;;;5031507;28;20579;-45
2021/09/10 04:44:54;;;;;;;2.60;2.40;;;24.30;46.10;;;;;;5029901;28;20317;-47
2021/09/10 04:47:21;;;;;;;2.60;2.40;;;24.30;46.20;;;;;;5031366;28;20293;-49
2021/09/10 04:49:47;;;;;;;2.53;2.30;;;24.30;46.10;;;;;;5030251;28;20377;-51
2021/09/10 04:52:13;;;;;;;2.72;2.53;;;24.30;46.10;;;;;;5031943;28;20273;-51
2021/09/10 04:54:40;;;;;;;2.63;2.42;;;24.30;46.10;;;;;;5030156;28;20645;-45
2021/09/10 04:57:06;;;;;;;2.90;2.70;;;24.30;46.10;;;;;;5031645;28;20293;-46
2021/09/10 04:59:33;;;;;;;2.90;2.63;;;24.30;46.20;;;;;;5029961;28;20289;-48
2021/09/10 05:01:59;;;;;;;3.10;2.80;;;24.30;46.20;;;;;;5029242;28;20309;-46
2021/09/10 05:04:26;;;;;;;2.90;2.60;;;24.30;46.30;;;;;;5027908;28;20376;-49
2021/09/10 05:06:52;;;;;;;2.80;2.60;;;24.40;46.40;;;;;;5031682;28;20237;-45
2021/09/10 05:09:19;;;;;;;2.72;2.47;;;24.40;46.40;;;;;;5029664;28;20290;-45
2021/09/10 05:11:45;;;;;;;2.72;2.53;;;24.40;46.40;;;;;;5030905;28;20333;-47
2021/09/10 05:14:13;;;;;;;2.83;2.58;;;24.30;46.30;;;;;;5029823;28;20302;-49
2021/09/10 05:16:39;;;;;;;3.00;2.80;;;24.30;46.40;;;;;;5028892;28;20682;-46
2021/09/10 05:19:06;;;;;;;3.20;2.90;;;24.30;46.40;;;;;;5030726;28;20301;-47
2021/09/10 05:21:32;;;;;;;2.85;2.40;;;24.40;46.50;;;;;;5029707;28;20313;-46
2021/09/10 05:23:59;;;;;;;2.72;2.53;;;24.40;46.50;;;;;;5030320;28;20202;-50
2021/09/10 05:26:25;;;;;;;2.72;2.50;;;24.40;46.60;;;;;;5029182;28;20332;-46
2021/09/10 05:28:52;;;;;;;2.80;2.60;;;24.40;46.50;;;;;;5030942;28;20289;-45
2021/09/10 05:31:18;;;;;;;2.72;2.53;;;24.40;46.50;;;;;;5029632;28;20762;-47
2021/09/10 05:33:44;;;;;;;2.70;2.50;;;24.30;46.40;;;;;;5030426;28;20236;-51
2021/09/10 05:36:11;;;;;;;2.72;2.53;;;24.30;46.50;;;;;;5030353;28;20238;-48
2021/09/10 05:38:37;;;;;;;2.60;2.40;;;24.40;46.50;;;;;;5030539;28;20230;-51
2021/09/10 05:41:04;;;;;;;2.80;2.60;;;24.40;46.50;;;;;;5026699;28;20227;-51
2021/09/10 05:43:30;;;;;;;2.45;2.25;;;24.40;46.60;;;;;;5030095;28;20302;-47
2021/09/10 05:45:57;;;;;;;2.50;2.30;;;24.40;46.60;;;;;;5030044;28;20317;-52
2021/09/10 05:48:24;;;;;;;3.08;2.42;;;24.40;46.70;;;;;;5030909;28;20733;-49
2021/09/10 05:50:50;;;;;;;2.95;2.63;;;24.40;46.70;;;;;;5029588;28;20335;-51
2021/09/10 05:53:17;;;;;;;2.60;2.35;;;24.30;46.50;;;;;;5030092;28;20322;-50
2021/09/10 05:55:43;;;;;;;2.40;2.20;;;24.40;46.70;;;;;;5029064;28;20293;-52
2021/09/10 05:58:09;;;;;;;2.80;2.55;;;24.40;46.60;;;;;;5030620;28;20213;-53
2021/09/10 06:00:36;;;;;;;2.90;2.70;;;24.40;46.60;;;;;;5026281;28;20312;-52
2021/09/10 06:03:02;;;;;;;2.65;2.40;;;24.30;46.50;;;;;;5028893;28;20626;-50
2021/09/10 06:05:29;;;;;;;2.60;2.40;;;24.30;46.50;;;;;;5030245;28;20305;-51
2021/09/10 06:07:55;;;;;;;2.67;2.47;;;24.40;46.60;;;;;;5029907;28;20230;-49
2021/09/10 06:10:22;;;;;;;2.90;2.70;;;24.30;46.50;;;;;;5030513;28;20673;-50
2021/09/10 06:12:48;;;;;;;3.03;2.83;;;24.40;46.60;;;;;;5028691;28;20281;-44
2021/09/10 06:15:15;;;;;;;2.70;2.50;;;24.30;46.50;;;;;;5029998;28;20301;-49
2021/09/10 06:17:41;;;;;;;2.53;2.33;;;24.30;46.50;;;;;;5028903;28;20317;-51
2021/09/10 06:20:08;;;;;;;2.67;2.47;;;24.40;46.60;;;;;;5028229;28;20293;-51
2021/09/10 06:22:34;;;;;;;3.47;2.67;;;24.40;46.60;;;;;;5030275;28;20640;-50
2021/09/10 06:25:02;;;;;;;2.63;2.42;;;24.30;46.50;;;;;;5028653;28;20309;-51
2021/09/10 06:27:29;;;;;;;3.92;2.50;;;24.40;46.60;;;;;;5029948;28;20218;-49
2021/09/10 06:29:55;;;;;;;3.25;2.60;;;24.30;46.50;;;;;;5029781;28;20648;-48
2021/09/10 06:32:24;;;;;;;2.85;2.65;;;24.40;46.60;;;;;;5030102;28;20320;-46
2021/09/10 06:34:50;;;;;;;2.80;2.60;;;24.40;46.60;;;;;;5028612;28;20297;-48
2021/09/10 06:37:18;;;;;;;2.80;2.60;;;24.40;46.60;;;;;;5030517;28;20641;-48
2021/09/10 06:39:44;;;;;;;2.80;2.60;;;24.40;46.50;;;;;;5029237;28;20648;-48
2021/09/10 06:42:11;;;;;;;2.80;2.60;;;24.40;46.50;;;;;;5029277;28;20317;-49
2021/09/10 06:44:37;;;;;;;2.70;2.50;;;24.30;46.50;;;;;;5025970;28;20297;-46
2021/09/10 06:47:04;;;;;;;2.92;2.65;;;24.40;46.50;;;;;;5029631;28;20325;-49
2021/09/10 06:49:30;;;;;;;3.13;2.42;;;24.40;47.20;;;;;;5029750;28;20238;-49
2021/09/10 06:51:57;;;;;;;2.70;2.50;;;24.40;46.50;;;;;;5030163;28;20612;-46
2021/09/10 06:54:23;;;;;;;2.85;2.25;;;24.40;46.50;;;;;;5028288;28;20234;-47
2021/09/10 06:56:50;;;;;;;2.70;2.50;;;24.40;46.60;;;;;;5029771;28;20298;-46
2021/09/10 06:59:19;;;;;;;3.13;2.50;;;24.40;46.50;;;;;;5030448;28;20229;-45
2021/09/10 07:01:45;;;;;;;2.88;2.58;;;24.40;46.50;;;;;;5027920;28;20230;-47
2021/09/10 07:04:12;;;;;;;2.78;2.58;;;24.40;46.50;;;;;;5029353;28;20714;-48
2021/09/10 07:06:38;;;;;;;2.95;2.65;;;24.40;46.50;;;;;;5024007;28;20231;-50
2021/09/10 07:09:05;;;;;;;3.13;2.50;;;24.40;46.60;;;;;;5028933;28;20287;-48
2021/09/10 07:11:32;;;;;;;3.28;2.75;;;24.40;46.80;;;;;;5026404;28;20226;-48
2021/09/10 07:13:59;;;;;;;5.15;2.42;;;24.40;46.90;;;;;;5024881;28;20202;-48
2021/09/10 07:16:25;;;;;;;6.53;2.30;;;24.40;47.10;;;;;;5026889;28;20286;-46
2021/09/10 07:18:52;;;;;;;7.03;3.92;;;24.50;47.40;;;;;;5026445;28;20213;-44
2021/09/10 07:21:18;;;;;;;5.25;3.45;;;24.50;46.90;;;;;;5024131;28;20218;-40
2021/09/10 07:23:44;;;;;;;9.68;3.50;;;24.50;46.60;;;;;;5024822;28;20665;-48
2021/09/10 07:26:11;;;;;;;7.60;4.03;;;24.50;48.10;;;;;;5026472;28;20335;-45
2021/09/10 07:28:37;;;;;;;11.20;3.88;;;24.60;48.20;;;;;;5025424;28;20293;-46
2021/09/10 07:31:04;;;;;;;7.32;3.80;;;24.60;48.30;;;;;;5026693;28;20265;-45
2021/09/10 07:33:30;;;;;;;7.43;3.90;;;24.60;48.60;;;;;;5026945;28;20289;-47
2021/09/10 07:35:57;;;;;;;9.75;4.32;;;24.60;49.20;;;;;;5030624;28;20307;-47
2021/09/10 07:38:23;;;;;;;11.65;4.55;;;24.60;49.60;;;;;;5024403;28;20297;-47
2021/09/10 07:40:50;;;;;;;6.90;4.32;;;24.60;50.60;;;;;;5029198;28;20314;-46
2021/09/10 07:43:16;;;;;;;14.23;5.20;;;24.60;50.20;;;;;;5032028;28;20294;-46
2021/09/10 07:45:43;;;;;;;10.00;4.97;;;24.60;50.40;;;;;;5032127;28;20782;-47
2021/09/10 07:48:09;;;;;;;8.25;4.82;;;24.70;50.80;;;;;;5032009;28;20293;-48
2021/09/10 07:50:35;;;;;;;11.48;5.68;;;24.70;51.30;;;;;;5031609;28;20335;-43
2021/09/10 07:53:02;;;;;;;7.05;5.50;;;24.70;51.70;;;;;;5032802;28;20230;-47
2021/09/10 07:55:28;;;;;;;7.45;5.20;;;24.30;44.20;;;;;;5028157;28;20572;-45
2021/09/10 07:57:55;;;;;;;10.90;6.22;;;23.80;45.70;;;;;;5030765;28;20286;-44
2021/09/10 08:00:22;;;;;;;12.48;5.88;;;23.70;45.30;;;;;;5029824;28;20310;-44
2021/09/10 08:02:48;;;;;;;5.93;5.38;;;23.50;44.80;;;;;;5030460;28;20206;-46
2021/09/10 08:05:15;;;;;;;6.88;5.45;;;23.50;44.50;;;;;;5030711;28;20285;-44
2021/09/10 08:07:41;;;;;;;6.72;5.75;;;23.50;45.70;;;;;;5030949;28;20286;-43
2021/09/10 08:10:11;;;;;;;6.00;5.40;;;23.70;45.60;;;;;;5031981;28;20306;-49
2021/09/10 08:12:37;;;;;;;6.38;5.43;;;23.70;45.90;;;;;;5028650;28;20206;-47
2021/09/10 08:15:04;;;;;;;6.18;5.63;;;23.80;46.10;;;;;;5025631;28;20286;-48
2021/09/10 08:17:30;;;;;;;7.43;5.47;;;23.80;45.40;;;;;;5030271;28;20293;-44
2021/09/10 08:19:57;;;;;;;6.03;5.13;;;23.70;43.50;;;;;;5011914;28;20262;-44
2021/09/10 08:22:23;;;;;;;5.82;5.07;;;23.50;43.50;;;;;;5030025;28;20285;-44
2021/09/10 08:24:50;;;;;;;6.85;5.57;;;23.40;44.10;;;;;;5029545;28;20289;-44
2021/09/10 08:27:16;;;;;;;5.68;5.13;;;23.30;43.10;;;;;;5028421;28;20313;-44
2021/09/10 08:29:43;;;;;;;5.32;4.82;;;23.40;44.10;;;;;;5027598;28;20222;-45
2021/09/10 08:32:10;;;;;;;5.70;5.13;;;23.50;44.60;;;;;;5024330;28;20199;-44
2021/09/10 08:34:36;;;;;;;6.32;5.75;;;23.70;45.10;;;;;;5025374;28;20289;-44
2021/09/10 08:37:03;;;;;;;6.80;5.03;;;23.80;45.70;;;;;;5025806;28;20203;-44
2021/09/10 08:39:29;;;;;;;5.82;5.30;;;23.90;45.70;;;;;;5025532;28;20305;-46
2021/09/10 08:41:56;;;;;;;6.45;5.72;;;24.00;46.20;;;;;;5024518;28;20705;-49
2021/09/10 08:44:22;;;;;;;6.10;5.47;;;24.00;46.40;;;;;;5025274;28;20298;-47
2021/09/10 08:46:49;;;;;;;5.60;5.10;;;24.10;46.80;;;;;;5026600;28;20777;-46
2021/09/10 08:49:15;;;;;;;5.68;5.18;;;24.20;46.80;;;;;;5025932;28;20281;-46
2021/09/10 08:51:42;;;;;;;5.85;5.35;;;24.20;47.20;;;;;;5022649;28;20544;-47
2021/09/10 08:54:08;;;;;;;7.78;4.70;;;24.20;47.20;;;;;;5028806;28;20199;-46
2021/09/10 08:56:35;;;;;;;5.95;5.38;;;24.20;47.00;;;;;;5031047;28;20241;-46
2021/09/10 08:59:01;;;;;;;7.45;5.22;;;24.30;47.20;;;;;;5031318;28;20281;-45
2021/09/10 09:01:28;;;;;;;5.70;4.90;;;24.30;47.50;;;;;;5031624;28;20309;-44
2021/09/10 09:03:54;;;;;;;6.57;5.13;;;24.30;47.60;;;;;;5031172;28;20298;-45
2021/09/10 09:06:21;;;;;;;5.20;4.70;;;24.30;48.00;;;;;;5031174;28;20349;-46
2021/09/10 09:08:48;;;;;;;7.18;4.85;;;24.30;47.80;;;;;;5031105;28;20290;-45
2021/09/10 09:11:14;;;;;;;6.93;5.35;;;24.30;47.80;;;;;;5031222;28;20218;-47
2021/09/10 09:13:41;;;;;;;5.95;4.90;;;24.30;47.90;;;;;;5030424;28;20229;-46
2021/09/10 09:16:07;;;;;;;7.07;5.00;;;24.30;47.90;;;;;;5031345;28;20738;-48
2021/09/10 09:18:33;;;;;;;5.88;5.20;;;24.30;47.80;;;;;;5031253;28;20304;-45
2021/09/10 09:21:00;;;;;;;4.90;4.50;;;24.40;48.00;;;;;;5030399;28;20313;-50
2021/09/10 09:23:26;;;;;;;5.20;4.70;;;24.40;47.90;;;;;;5029954;28;20300;-46
2021/09/10 09:25:53;;;;;;;4.70;4.28;;;24.40;48.00;;;;;;5030709;28;20278;-50
2021/09/10 09:28:19;;;;;;;6.15;4.90;;;24.40;47.90;;;;;;5027707;28;20341;-49
2021/09/10 09:30:46;;;;;;;5.90;4.53;;;24.40;47.90;;;;;;5030305;28;20620;-52
2021/09/10 09:33:14;;;;;;;8.75;5.40;;;24.40;48.00;;;;;;5030806;28;20248;-50
2021/09/10 09:35:40;;;;;;;6.10;4.45;;;24.40;48.00;;;;;;5030555;28;20238;-52
2021/09/10 09:38:07;;;;;;;6.07;4.90;;;24.40;47.80;;;;;;5030566;28;20253;-49
2021/09/10 09:40:33;;;;;;;6.97;5.10;;;24.40;47.90;;;;;;5030830;28;20648;-50
2021/09/10 09:43:00;;;;;;;7.45;5.10;;;24.40;47.90;;;;;;5030797;28;20229;-51
2021/09/10 09:45:26;;;;;;;6.35;5.25;;;24.40;47.80;;;;;;5030202;28;20281;-46
2021/09/10 09:47:53;;;;;;;5.90;4.75;;;24.40;47.80;;;;;;5030368;28;20574;-45
2021/09/10 09:50:19;;;;;;;5.75;5.13;;;24.40;47.80;;;;;;5029045;28;20340;-47
2021/09/10 09:52:46;;;;;;;6.18;4.55;;;24.40;47.80;;;;;;5027170;28;20244;-42
2021/09/10 09:55:13;;;;;;;7.55;5.55;;;24.40;48.00;;;;;;5024786;28;20648;-47
2021/09/10 09:57:39;;;;;;;5.90;5.30;;;24.40;48.00;;;;;;5023915;28;20198;-50
2021/09/10 10:00:06;;;;;;;7.05;5.57;;;24.50;48.70;;;;;;5024606;28;20219;-48
2021/09/10 10:02:32;;;;;;;7.40;5.10;;;24.50;48.80;;;;;;5024198;28;20696;-48
2021/09/10 10:04:59;;;;;;;7.82;5.43;;;24.60;49.20;;;;;;5024204;28;20309;-47
2021/09/10 10:07:25;;;;;;;7.25;5.07;;;24.60;49.40;;;;;;5025288;28;20222;-45
2021/09/10 10:09:52;;;;;;;5.40;4.78;;;24.60;49.20;;;;;;5024335;28;20241;-45
2021/09/10 10:12:18;;;;;;;6.30;5.28;;;24.60;50.10;;;;;;5023778;28;20202;-47
2021/09/10 10:14:45;;;;;;;7.40;5.30;;;24.60;49.80;;;;;;5023696;28;20570;-47
2021/09/10 10:17:11;;;;;;;5.43;4.93;;;24.70;50.00;;;;;;5023379;28;20260;-48
2021/09/10 10:19:38;;;;;;;6.47;5.18;;;24.70;49.80;;;;;;5024368;28;20349;-46
2021/09/10 10:22:04;;;;;;;5.30;4.80;;;24.70;50.10;;;;;;5023707;28;20561;-49
2021/09/10 10:24:31;;;;;;;6.40;4.63;;;24.60;50.20;;;;;;5022927;28;20218;-45
2021/09/10 10:26:58;;;;;;;6.07;4.47;;;24.70;50.30;;;;;;5023734;28;20237;-45
2021/09/10 10:29:24;;;;;;;8.48;5.03;;;24.70;50.30;;;;;;5024355;28;20218;-48
2021/09/10 10:31:51;;;;;;;7.30;4.65;;;24.70;50.40;;;;;;5024283;28;20205;-51
2021/09/10 10:34:17;;;;;;;6.20;4.90;;;24.70;51.00;;;;;;5022750;28;20202;-53
2021/09/10 10:36:45;;;;;;;5.57;4.90;;;24.70;50.40;;;;;;5024083;28;20719;-45
2021/09/10 10:39:12;;;;;;;5.43;4.85;;;24.70;50.30;;;;;;5024179;28;20249;-50
2021/09/10 10:41:39;;;;;;;5.57;4.97;;;24.70;50.20;;;;;;5024977;28;20249;-46
2021/09/10 10:44:05;;;;;;;7.68;5.28;;;24.70;50.30;;;;;;5026852;28;20690;-47
2021/09/10 10:46:32;;;;;;;6.45;4.82;;;24.60;50.30;;;;;;5025843;28;20761;-44
2021/09/10 10:48:59;;;;;;;5.10;4.60;;;24.70;50.40;;;;;;5026421;28;20206;-44
2021/09/10 10:51:25;;;;;;;5.07;4.57;;;24.70;50.20;;;;;;5030187;28;20301;-45
2021/09/10 10:53:52;;;;;;;5.57;4.60;;;24.70;50.20;;;;;;5031820;28;20282;-46
2021/09/10 10:56:18;;;;;;;5.93;4.70;;;24.70;50.40;;;;;;5032332;28;20289;-46
2021/09/10 10:58:45;;;;;;;4.82;4.32;;;24.60;50.20;;;;;;5028827;28;20301;-45
2021/09/10 11:01:11;;;;;;;6.85;5.07;;;24.70;50.10;;;;;;5033271;28;20293;-46
2021/09/10 11:03:38;;;;;;;5.63;4.90;;;24.70;50.10;;;;;;5032930;28;20687;-46
2021/09/10 11:06:04;;;;;;;5.35;4.82;;;24.60;49.90;;;;;;5032580;28;20305;-46
2021/09/10 11:08:31;;;;;;;7.07;5.68;;;24.60;49.90;;;;;;5034041;28;20194;-46
2021/09/10 11:10:57;;;;;;;7.28;4.95;;;24.60;49.80;;;;;;5033589;28;20273;-47
2021/09/10 11:13:24;;;;;;;5.75;4.85;;;24.60;49.70;;;;;;5033087;28;20626;-47
2021/09/10 11:15:50;;;;;;;5.88;5.28;;;24.60;49.60;;;;;;5030063;28;20742;-47
2021/09/10 11:18:17;;;;;;;5.38;4.68;;;24.60;49.50;;;;;;5032717;28;20292;-42
2021/09/10 11:20:46;;;;;;;5.35;4.85;;;24.60;49.60;;;;;;5032763;28;20321;-44
2021/09/10 11:23:12;;;;;;;6.63;5.20;;;24.60;49.50;;;;;;5032165;28;20207;-44
2021/09/10 11:25:39;;;;;;;5.78;5.28;;;24.60;49.40;;;;;;5032355;28;20236;-48
2021/09/10 11:28:05;;;;;;;5.45;4.95;;;24.60;49.40;;;;;;5030015;28;20313;-43
2021/09/10 11:30:31;;;;;;;5.20;4.70;;;24.50;49.30;;;;;;5030241;28;20694;-44
2021/09/10 11:32:58;;;;;;;5.22;4.65;;;24.50;49.20;;;;;;5031321;28;20301;-44
2021/09/10 11:35:24;;;;;;;5.05;4.55;;;24.50;49.20;;;;;;5033792;28;20233;-47
2021/09/10 11:37:51;;;;;;;5.18;4.65;;;24.50;49.30;;;;;;5033867;28;20286;-46
2021/09/10 11:40:17;;;;;;;5.28;4.78;;;24.50;49.10;;;;;;5033314;28;20305;-44
2021/09/10 11:42:44;;;;;;;5.18;4.72;;;24.50;49.00;;;;;;5031647;28;20230;-48
2021/09/10 11:45:10;;;;;;;5.22;4.72;;;24.50;49.20;;;;;;5032930;28;20234;-43
2021/09/10 11:47:37;;;;;;;5.20;4.70;;;24.50;49.00;;;;;;5033353;28;20320;-45
2021/09/10 11:50:03;;;;;;;5.43;4.93;;;24.50;49.10;;;;;;5032987;28;20258;-45
2021/09/10 11:52:30;;;;;;;6.05;5.25;;;24.50;49.00;;;;;;5031000;28;20290;-46
2021/09/10 11:54:56;;;;;;;5.20;4.80;;;24.50;49.00;;;;;;5031958;28;20290;-42
2021/09/10 11:57:23;;;;;;;5.22;4.75;;;24.50;48.80;;;;;;5030413;28;20741;-41
2021/09/10 11:59:49;;;;;;;5.68;5.05;;;24.50;48.90;;;;;;5032738;28;20309;-41
2021/09/10 12:02:16;;;;;;;4.93;4.53;;;24.50;48.80;;;;;;5031006;28;20207;-44
2021/09/10 12:04:42;;;;;;;4.68;4.28;;;24.50;48.70;;;;;;5033590;28;20620;-43
2021/09/10 12:07:09;;;;;;;4.70;4.30;;;24.50;48.60;;;;;;5033267;28;20309;-41
2021/09/10 12:09:37;;;;;;;4.40;4.00;;;24.50;48.60;;;;;;5032815;28;20233;-43
2021/09/10 12:12:04;;;;;;;5.00;4.60;;;24.50;48.60;;;;;;5032791;28;20199;-48
2021/09/10 12:14:30;;;;;;;5.38;4.88;;;24.50;48.50;;;;;;5032197;28;20285;-47
2021/09/10 12:16:57;;;;;;;4.95;4.55;;;24.50;48.50;;;;;;5032677;28;20294;-48
2021/09/10 12:19:23;;;;;;;4.60;4.18;;;24.50;48.40;;;;;;5032809;28;20292;-46
2021/09/10 12:21:50;;;;;;;4.50;4.10;;;24.50;49.10;;;;;;5026483;28;20280;-41
2021/09/10 12:24:17;;;;;;;5.10;4.43;;;24.50;48.40;;;;;;5028932;28;20253;-46
2021/09/10 12:26:43;;;;;;;4.72;4.22;;;24.50;48.30;;;;;;5032496;28;20683;-42
2021/09/10 12:29:10;;;;;;;4.90;4.28;;;24.50;48.30;;;;;;5031716;28;20277;-42
2021/09/10 12:31:36;;;;;;;4.43;4.03;;;24.50;48.30;;;;;;5032467;28;20281;-44
2021/09/10 12:34:03;;;;;;;4.90;4.50;;;24.50;48.20;;;;;;5030482;28;20285;-43
2021/09/10 12:36:29;;;;;;;5.15;4.72;;;24.50;48.20;;;;;;5025584;28;20628;-41
2021/09/10 12:38:56;;;;;;;5.05;4.57;;;24.50;48.10;;;;;;5032482;28;20310;-44
2021/09/10 12:41:22;;;;;;;4.85;4.35;;;24.50;48.10;;;;;;5032440;28;20293;-41